sensor_id;sensor_type;location;lat;lon;timestamp;P1;durP1;ratioP1;P2;durP2;ratioP2
78453;SDS011;67750;55.832;49.124;2023-08-06T00:01:22;17.98;;;9.53;;
78453;SDS011;67750;55.832;49.124;2023-08-06T00:03:52;21.33;;;9.33;;
78453;SDS011;67750;55.832;49.124;2023-08-06T00:06:22;13.95;;;9.20;;
78453;SDS011;67750;55.832;49.124;2023-08-06T00:08:51;19.42;;;10.10;;
78453;SDS011;67750;55.832;49.124;2023-08-06T00:11:22;24.45;;;12.18;;
78453;SDS011;67750;55.832;49.124;2023-08-06T00:13:51;17.32;;;9.83;;
78453;SDS011;67750;55.832;49.124;2023-08-06T00:16:21;25.97;;;10.88;;
78453;SDS011;67750;55.832;49.124;2023-08-06T00:18:50;20.70;;;10.60;;
78453;SDS011;67750;55.832;49.124;2023-08-06T00:21:20;24.75;;;10.32;;
78453;SDS011;67750;55.832;49.124;2023-08-06T00:23:49;22.60;;;11.48;;
78453;SDS011;67750;55.832;49.124;2023-08-06T00:26:19;23.02;;;11.38;;
78453;SDS011;67750;55.832;49.124;2023-08-06T00:28:49;23.18;;;10.53;;
78453;SDS011;67750;55.832;49.124;2023-08-06T00:31:18;24.65;;;11.53;;
78453;SDS011;67750;55.832;49.124;2023-08-06T00:33:48;19.65;;;11.12;;
78453;SDS011;67750;55.832;49.124;2023-08-06T00:36:17;23.70;;;10.53;;
78453;SDS011;67750;55.832;49.124;2023-08-06T00:38:47;27.07;;;11.83;;
78453;SDS011;67750;55.832;49.124;2023-08-06T00:41:16;22.85;;;11.70;;
78453;SDS011;67750;55.832;49.124;2023-08-06T00:43:46;21.65;;;11.40;;
78453;SDS011;67750;55.832;49.124;2023-08-06T00:46:15;25.75;;;11.30;;
78453;SDS011;67750;55.832;49.124;2023-08-06T00:51:14;23.62;;;11.83;;
78453;SDS011;67750;55.832;49.124;2023-08-06T00:53:44;24.25;;;11.65;;
78453;SDS011;67750;55.832;49.124;2023-08-06T00:56:14;26.10;;;11.93;;
78453;SDS011;67750;55.832;49.124;2023-08-06T00:58:44;26.93;;;11.73;;
78453;SDS011;67750;55.832;49.124;2023-08-06T01:01:14;24.63;;;11.25;;
78453;SDS011;67750;55.832;49.124;2023-08-06T01:03:44;34.95;;;11.78;;
78453;SDS011;67750;55.832;49.124;2023-08-06T01:06:14;33.67;;;11.73;;
78453;SDS011;67750;55.832;49.124;2023-08-06T01:08:49;29.75;;;11.57;;
78453;SDS011;67750;55.832;49.124;2023-08-06T01:16:54;35.38;;;11.88;;
78453;SDS011;67750;55.832;49.124;2023-08-06T01:19:24;34.90;;;12.98;;
78453;SDS011;67750;55.832;49.124;2023-08-06T01:21:53;34.80;;;12.00;;
78453;SDS011;67750;55.832;49.124;2023-08-06T01:24:23;37.42;;;12.60;;
78453;SDS011;67750;55.832;49.124;2023-08-06T01:29:43;44.08;;;12.20;;
78453;SDS011;67750;55.832;49.124;2023-08-06T01:32:13;34.95;;;12.33;;
78453;SDS011;67750;55.832;49.124;2023-08-06T01:37:12;38.60;;;12.03;;
78453;SDS011;67750;55.832;49.124;2023-08-06T01:45:00;38.53;;;12.10;;
78453;SDS011;67750;55.832;49.124;2023-08-06T01:47:32;37.93;;;12.65;;
78453;SDS011;67750;55.832;49.124;2023-08-06T01:50:01;27.50;;;11.43;;
78453;SDS011;67750;55.832;49.124;2023-08-06T01:52:31;19.05;;;10.28;;
78453;SDS011;67750;55.832;49.124;2023-08-06T01:55:01;23.55;;;10.90;;
78453;SDS011;67750;55.832;49.124;2023-08-06T01:57:32;25.90;;;10.43;;
78453;SDS011;67750;55.832;49.124;2023-08-06T02:00:03;20.50;;;11.12;;
78453;SDS011;67750;55.832;49.124;2023-08-06T02:02:35;26.50;;;10.80;;
78453;SDS011;67750;55.832;49.124;2023-08-06T02:05:05;21.82;;;10.82;;
78453;SDS011;67750;55.832;49.124;2023-08-06T02:07:35;22.48;;;10.15;;
78453;SDS011;67750;55.832;49.124;2023-08-06T02:10:05;23.18;;;10.78;;
78453;SDS011;67750;55.832;49.124;2023-08-06T02:12:35;23.92;;;10.48;;
78453;SDS011;67750;55.832;49.124;2023-08-06T02:15:05;27.98;;;10.15;;
78453;SDS011;67750;55.832;49.124;2023-08-06T02:17:35;21.65;;;10.55;;
78453;SDS011;67750;55.832;49.124;2023-08-06T02:20:06;22.02;;;10.30;;
78453;SDS011;67750;55.832;49.124;2023-08-06T02:22:35;22.02;;;10.20;;
78453;SDS011;67750;55.832;49.124;2023-08-06T02:25:05;19.98;;;10.72;;
78453;SDS011;67750;55.832;49.124;2023-08-06T02:27:35;22.73;;;9.70;;
78453;SDS011;67750;55.832;49.124;2023-08-06T02:30:07;15.15;;;9.43;;
78453;SDS011;67750;55.832;49.124;2023-08-06T02:32:36;17.67;;;9.80;;
78453;SDS011;67750;55.832;49.124;2023-08-06T02:35:06;18.98;;;9.68;;
78453;SDS011;67750;55.832;49.124;2023-08-06T02:37:36;15.95;;;9.08;;
78453;SDS011;67750;55.832;49.124;2023-08-06T02:40:05;18.27;;;10.25;;
78453;SDS011;67750;55.832;49.124;2023-08-06T02:42:35;20.55;;;10.32;;
78453;SDS011;67750;55.832;49.124;2023-08-06T02:45:05;18.15;;;9.90;;
78453;SDS011;67750;55.832;49.124;2023-08-06T02:47:34;17.12;;;9.68;;
78453;SDS011;67750;55.832;49.124;2023-08-06T02:50:04;18.50;;;10.55;;
78453;SDS011;67750;55.832;49.124;2023-08-06T02:52:34;20.97;;;10.60;;
78453;SDS011;67750;55.832;49.124;2023-08-06T02:55:06;18.70;;;10.10;;
78453;SDS011;67750;55.832;49.124;2023-08-06T02:57:37;17.10;;;10.25;;
78453;SDS011;67750;55.832;49.124;2023-08-06T03:00:07;18.45;;;10.38;;
78453;SDS011;67750;55.832;49.124;2023-08-06T03:02:38;13.98;;;9.55;;
78453;SDS011;67750;55.832;49.124;2023-08-06T03:05:28;17.57;;;9.98;;
78453;SDS011;67750;55.832;49.124;2023-08-06T03:07:57;17.75;;;9.93;;
78453;SDS011;67750;55.832;49.124;2023-08-06T03:10:28;16.07;;;9.20;;
78453;SDS011;67750;55.832;49.124;2023-08-06T03:12:59;16.42;;;10.18;;
78453;SDS011;67750;55.832;49.124;2023-08-06T03:15:29;14.87;;;8.70;;
78453;SDS011;67750;55.832;49.124;2023-08-06T03:17:59;13.22;;;8.65;;
78453;SDS011;67750;55.832;49.124;2023-08-06T03:20:29;19.57;;;8.73;;
78453;SDS011;67750;55.832;49.124;2023-08-06T03:22:58;13.43;;;8.60;;
78453;SDS011;67750;55.832;49.124;2023-08-06T03:25:29;11.85;;;8.00;;
78453;SDS011;67750;55.832;49.124;2023-08-06T03:27:59;13.35;;;8.30;;
78453;SDS011;67750;55.832;49.124;2023-08-06T03:30:28;10.00;;;8.35;;
78453;SDS011;67750;55.832;49.124;2023-08-06T03:32:58;10.32;;;7.35;;
78453;SDS011;67750;55.832;49.124;2023-08-06T03:35:27;11.40;;;6.92;;
78453;SDS011;67750;55.832;49.124;2023-08-06T03:37:57;12.98;;;7.35;;
78453;SDS011;67750;55.832;49.124;2023-08-06T03:40:27;10.75;;;5.97;;
78453;SDS011;67750;55.832;49.124;2023-08-06T03:42:57;8.80;;;5.80;;
78453;SDS011;67750;55.832;49.124;2023-08-06T03:45:27;9.25;;;6.40;;
78453;SDS011;67750;55.832;49.124;2023-08-06T03:47:56;8.83;;;5.72;;
78453;SDS011;67750;55.832;49.124;2023-08-06T03:50:26;9.80;;;5.87;;
78453;SDS011;67750;55.832;49.124;2023-08-06T03:52:56;7.83;;;5.58;;
78453;SDS011;67750;55.832;49.124;2023-08-06T03:55:25;9.10;;;5.62;;
78453;SDS011;67750;55.832;49.124;2023-08-06T03:57:55;12.13;;;5.65;;
78453;SDS011;67750;55.832;49.124;2023-08-06T04:00:24;8.40;;;5.65;;
78453;SDS011;67750;55.832;49.124;2023-08-06T04:02:54;8.18;;;5.37;;
78453;SDS011;67750;55.832;49.124;2023-08-06T04:05:23;6.58;;;4.50;;
78453;SDS011;67750;55.832;49.124;2023-08-06T04:07:53;8.48;;;5.17;;
78453;SDS011;67750;55.832;49.124;2023-08-06T04:10:22;7.00;;;5.62;;
78453;SDS011;67750;55.832;49.124;2023-08-06T04:12:52;7.30;;;5.42;;
78453;SDS011;67750;55.832;49.124;2023-08-06T04:15:21;7.85;;;5.45;;
78453;SDS011;67750;55.832;49.124;2023-08-06T04:17:51;9.00;;;5.28;;
78453;SDS011;67750;55.832;49.124;2023-08-06T04:20:20;8.65;;;5.80;;
78453;SDS011;67750;55.832;49.124;2023-08-06T04:22:50;8.25;;;5.08;;
78453;SDS011;67750;55.832;49.124;2023-08-06T04:25:21;9.08;;;4.92;;
78453;SDS011;67750;55.832;49.124;2023-08-06T04:27:50;7.47;;;4.85;;
78453;SDS011;67750;55.832;49.124;2023-08-06T04:30:20;7.08;;;4.83;;
78453;SDS011;67750;55.832;49.124;2023-08-06T04:32:50;6.22;;;4.65;;
78453;SDS011;67750;55.832;49.124;2023-08-06T04:35:20;6.33;;;4.33;;
78453;SDS011;67750;55.832;49.124;2023-08-06T04:37:50;5.78;;;4.42;;
78453;SDS011;67750;55.832;49.124;2023-08-06T04:40:19;5.90;;;3.98;;
78453;SDS011;67750;55.832;49.124;2023-08-06T04:42:49;6.60;;;4.35;;
78453;SDS011;67750;55.832;49.124;2023-08-06T04:45:19;5.33;;;3.52;;
78453;SDS011;67750;55.832;49.124;2023-08-06T04:47:50;5.08;;;3.67;;
78453;SDS011;67750;55.832;49.124;2023-08-06T04:50:20;5.92;;;3.50;;
78453;SDS011;67750;55.832;49.124;2023-08-06T04:52:49;7.80;;;3.67;;
78453;SDS011;67750;55.832;49.124;2023-08-06T04:55:19;10.05;;;3.60;;
78453;SDS011;67750;55.832;49.124;2023-08-06T04:57:48;6.72;;;3.42;;
78453;SDS011;67750;55.832;49.124;2023-08-06T05:00:18;6.37;;;4.05;;
78453;SDS011;67750;55.832;49.124;2023-08-06T05:02:48;5.55;;;3.40;;
78453;SDS011;67750;55.832;49.124;2023-08-06T05:05:17;5.47;;;3.30;;
78453;SDS011;67750;55.832;49.124;2023-08-06T05:07:48;5.33;;;3.15;;
78453;SDS011;67750;55.832;49.124;2023-08-06T05:10:18;4.75;;;3.37;;
78453;SDS011;67750;55.832;49.124;2023-08-06T05:12:47;9.60;;;3.40;;
78453;SDS011;67750;55.832;49.124;2023-08-06T05:15:17;5.35;;;3.02;;
78453;SDS011;67750;55.832;49.124;2023-08-06T05:17:47;4.40;;;2.77;;
78453;SDS011;67750;55.832;49.124;2023-08-06T05:20:16;4.55;;;2.50;;
78453;SDS011;67750;55.832;49.124;2023-08-06T05:22:46;4.50;;;3.00;;
78453;SDS011;67750;55.832;49.124;2023-08-06T05:25:15;3.62;;;2.70;;
78453;SDS011;67750;55.832;49.124;2023-08-06T05:27:45;4.47;;;2.70;;
78453;SDS011;67750;55.832;49.124;2023-08-06T05:30:15;3.20;;;2.15;;
78453;SDS011;67750;55.832;49.124;2023-08-06T05:32:44;2.87;;;2.17;;
78453;SDS011;67750;55.832;49.124;2023-08-06T05:35:14;3.67;;;2.33;;
78453;SDS011;67750;55.832;49.124;2023-08-06T05:37:43;5.08;;;2.47;;
78453;SDS011;67750;55.832;49.124;2023-08-06T05:40:13;3.98;;;2.58;;
78453;SDS011;67750;55.832;49.124;2023-08-06T05:42:42;2.45;;;1.95;;
78453;SDS011;67750;55.832;49.124;2023-08-06T05:45:12;3.42;;;2.35;;
78453;SDS011;67750;55.832;49.124;2023-08-06T05:47:41;5.50;;;2.02;;
78453;SDS011;67750;55.832;49.124;2023-08-06T05:50:11;6.22;;;2.00;;
78453;SDS011;67750;55.832;49.124;2023-08-06T05:52:41;3.95;;;2.17;;
78453;SDS011;67750;55.832;49.124;2023-08-06T05:55:10;3.77;;;1.92;;
78453;SDS011;67750;55.832;49.124;2023-08-06T05:57:40;5.10;;;2.10;;
78453;SDS011;67750;55.832;49.124;2023-08-06T06:00:10;3.20;;;2.17;;
78453;SDS011;67750;55.832;49.124;2023-08-06T06:02:39;4.08;;;1.70;;
78453;SDS011;67750;55.832;49.124;2023-08-06T06:05:08;2.37;;;1.98;;
78453;SDS011;67750;55.832;49.124;2023-08-06T06:07:38;6.17;;;2.35;;
78453;SDS011;67750;55.832;49.124;2023-08-06T06:10:27;6.20;;;2.15;;
78453;SDS011;67750;55.832;49.124;2023-08-06T06:12:56;3.08;;;1.77;;
78453;SDS011;67750;55.832;49.124;2023-08-06T06:15:26;4.50;;;2.00;;
78453;SDS011;67750;55.832;49.124;2023-08-06T06:17:56;4.50;;;1.90;;
78453;SDS011;67750;55.832;49.124;2023-08-06T06:20:25;4.42;;;1.77;;
78453;SDS011;67750;55.832;49.124;2023-08-06T06:22:55;3.70;;;1.70;;
78453;SDS011;67750;55.832;49.124;2023-08-06T06:25:24;2.25;;;1.50;;
78453;SDS011;67750;55.832;49.124;2023-08-06T06:27:54;3.75;;;1.50;;
78453;SDS011;67750;55.832;49.124;2023-08-06T06:30:23;2.85;;;1.60;;
78453;SDS011;67750;55.832;49.124;2023-08-06T06:32:53;4.17;;;1.92;;
78453;SDS011;67750;55.832;49.124;2023-08-06T06:35:22;3.22;;;1.30;;
78453;SDS011;67750;55.832;49.124;2023-08-06T06:37:52;4.15;;;2.10;;
78453;SDS011;67750;55.832;49.124;2023-08-06T06:40:21;2.12;;;1.40;;
78453;SDS011;67750;55.832;49.124;2023-08-06T06:42:51;6.67;;;1.82;;
78453;SDS011;67750;55.832;49.124;2023-08-06T06:45:20;2.12;;;1.42;;
78453;SDS011;67750;55.832;49.124;2023-08-06T06:47:50;3.15;;;1.27;;
78453;SDS011;67750;55.832;49.124;2023-08-06T06:50:19;5.05;;;1.62;;
78453;SDS011;67750;55.832;49.124;2023-08-06T06:52:49;3.55;;;1.65;;
78453;SDS011;67750;55.832;49.124;2023-08-06T06:55:18;2.80;;;1.50;;
78453;SDS011;67750;55.832;49.124;2023-08-06T06:57:48;2.35;;;1.60;;
78453;SDS011;67750;55.832;49.124;2023-08-06T07:00:17;2.22;;;1.40;;
78453;SDS011;67750;55.832;49.124;2023-08-06T07:02:47;3.70;;;1.90;;
78453;SDS011;67750;55.832;49.124;2023-08-06T07:05:16;5.90;;;2.20;;
78453;SDS011;67750;55.832;49.124;2023-08-06T07:07:46;3.60;;;1.82;;
78453;SDS011;67750;55.832;49.124;2023-08-06T07:10:15;3.52;;;1.82;;
78453;SDS011;67750;55.832;49.124;2023-08-06T07:12:45;5.20;;;2.00;;
78453;SDS011;67750;55.832;49.124;2023-08-06T07:15:14;3.90;;;1.72;;
78453;SDS011;67750;55.832;49.124;2023-08-06T07:17:44;4.83;;;1.90;;
78453;SDS011;67750;55.832;49.124;2023-08-06T07:20:14;3.60;;;1.77;;
78453;SDS011;67750;55.832;49.124;2023-08-06T07:22:44;4.92;;;1.67;;
78453;SDS011;67750;55.832;49.124;2023-08-06T07:25:13;5.33;;;1.98;;
78453;SDS011;67750;55.832;49.124;2023-08-06T07:27:43;4.70;;;1.82;;
78453;SDS011;67750;55.832;49.124;2023-08-06T07:30:12;3.40;;;1.80;;
78453;SDS011;67750;55.832;49.124;2023-08-06T07:32:42;4.35;;;1.85;;
78453;SDS011;67750;55.832;49.124;2023-08-06T07:35:11;6.03;;;1.55;;
78453;SDS011;67750;55.832;49.124;2023-08-06T07:37:41;2.65;;;1.85;;
78453;SDS011;67750;55.832;49.124;2023-08-06T07:40:11;4.53;;;1.50;;
78453;SDS011;67750;55.832;49.124;2023-08-06T07:42:41;5.95;;;2.08;;
78453;SDS011;67750;55.832;49.124;2023-08-06T07:45:10;4.47;;;1.70;;
78453;SDS011;67750;55.832;49.124;2023-08-06T07:47:40;6.15;;;1.80;;
78453;SDS011;67750;55.832;49.124;2023-08-06T07:50:10;6.12;;;2.08;;
78453;SDS011;67750;55.832;49.124;2023-08-06T07:52:39;6.47;;;2.00;;
78453;SDS011;67750;55.832;49.124;2023-08-06T07:55:09;5.30;;;1.75;;
78453;SDS011;67750;55.832;49.124;2023-08-06T07:58:00;5.40;;;1.80;;
78453;SDS011;67750;55.832;49.124;2023-08-06T08:00:29;3.17;;;1.40;;
78453;SDS011;67750;55.832;49.124;2023-08-06T08:03:00;4.28;;;1.60;;
78453;SDS011;67750;55.832;49.124;2023-08-06T08:05:30;5.30;;;1.67;;
78453;SDS011;67750;55.832;49.124;2023-08-06T08:08:00;2.52;;;1.50;;
78453;SDS011;67750;55.832;49.124;2023-08-06T08:10:30;4.95;;;1.75;;
78453;SDS011;67750;55.832;49.124;2023-08-06T08:15:29;3.40;;;1.62;;
78453;SDS011;67750;55.832;49.124;2023-08-06T08:17:59;2.27;;;1.42;;
78453;SDS011;67750;55.832;49.124;2023-08-06T08:20:28;3.87;;;1.60;;
78453;SDS011;67750;55.832;49.124;2023-08-06T08:23:18;4.05;;;1.72;;
78453;SDS011;67750;55.832;49.124;2023-08-06T08:25:47;2.77;;;1.70;;
78453;SDS011;67750;55.832;49.124;2023-08-06T08:28:17;8.85;;;1.82;;
78453;SDS011;67750;55.832;49.124;2023-08-06T08:30:46;2.20;;;1.52;;
78453;SDS011;67750;55.832;49.124;2023-08-06T08:33:16;2.80;;;1.57;;
78453;SDS011;67750;55.832;49.124;2023-08-06T08:35:45;3.33;;;1.55;;
78453;SDS011;67750;55.832;49.124;2023-08-06T08:38:15;3.02;;;1.72;;
78453;SDS011;67750;55.832;49.124;2023-08-06T08:43:34;2.98;;;1.67;;
78453;SDS011;67750;55.832;49.124;2023-08-06T08:46:04;2.67;;;1.42;;
78453;SDS011;67750;55.832;49.124;2023-08-06T08:48:35;3.05;;;1.40;;
78453;SDS011;67750;55.832;49.124;2023-08-06T08:51:04;2.10;;;1.50;;
78453;SDS011;67750;55.832;49.124;2023-08-06T08:53:35;3.02;;;1.47;;
78453;SDS011;67750;55.832;49.124;2023-08-06T08:56:06;3.25;;;1.77;;
78453;SDS011;67750;55.832;49.124;2023-08-06T08:58:36;3.87;;;1.47;;
78453;SDS011;67750;55.832;49.124;2023-08-06T09:01:05;2.02;;;1.50;;
78453;SDS011;67750;55.832;49.124;2023-08-06T09:03:36;2.55;;;1.42;;
78453;SDS011;67750;55.832;49.124;2023-08-06T09:06:05;4.33;;;1.85;;
78453;SDS011;67750;55.832;49.124;2023-08-06T09:13:58;5.03;;;1.65;;
78453;SDS011;67750;55.832;49.124;2023-08-06T09:16:29;4.08;;;1.77;;
78453;SDS011;67750;55.832;49.124;2023-08-06T09:19:06;3.70;;;1.67;;
78453;SDS011;67750;55.832;49.124;2023-08-06T09:21:30;7.62;;;2.20;;
78453;SDS011;67750;55.832;49.124;2023-08-06T09:23:59;3.45;;;1.75;;
78453;SDS011;67750;55.832;49.124;2023-08-06T09:26:33;3.67;;;1.70;;
78453;SDS011;67750;55.832;49.124;2023-08-06T09:29:00;6.42;;;1.80;;
78453;SDS011;67750;55.832;49.124;2023-08-06T09:42:27;3.17;;;1.77;;
78453;SDS011;67750;55.832;49.124;2023-08-06T09:47:26;4.42;;;1.80;;
78453;SDS011;67750;55.832;49.124;2023-08-06T09:49:55;3.30;;;1.70;;
78453;SDS011;67750;55.832;49.124;2023-08-06T09:52:26;5.67;;;1.60;;
78453;SDS011;67750;55.832;49.124;2023-08-06T09:54:55;4.87;;;1.85;;
78453;SDS011;67750;55.832;49.124;2023-08-06T09:57:25;5.00;;;1.77;;
78453;SDS011;67750;55.832;49.124;2023-08-06T09:59:55;5.20;;;1.85;;
78453;SDS011;67750;55.832;49.124;2023-08-06T10:02:25;4.72;;;1.60;;
78453;SDS011;67750;55.832;49.124;2023-08-06T10:04:55;3.90;;;1.62;;
78453;SDS011;67750;55.832;49.124;2023-08-06T10:07:26;2.75;;;1.62;;
78453;SDS011;67750;55.832;49.124;2023-08-06T10:09:56;4.47;;;1.70;;
78453;SDS011;67750;55.832;49.124;2023-08-06T10:12:27;2.58;;;1.65;;
78453;SDS011;67750;55.832;49.124;2023-08-06T10:14:59;3.72;;;1.70;;
78453;SDS011;67750;55.832;49.124;2023-08-06T10:17:29;5.22;;;1.50;;
78453;SDS011;67750;55.832;49.124;2023-08-06T10:20:00;5.40;;;1.47;;
78453;SDS011;67750;55.832;49.124;2023-08-06T10:22:33;2.30;;;1.50;;
78453;SDS011;67750;55.832;49.124;2023-08-06T10:25:03;3.55;;;1.42;;
78453;SDS011;67750;55.832;49.124;2023-08-06T10:27:35;3.90;;;1.77;;
78453;SDS011;67750;55.832;49.124;2023-08-06T10:32:56;2.77;;;1.20;;
78453;SDS011;67750;55.832;49.124;2023-08-06T10:38:18;3.30;;;1.30;;
78453;SDS011;67750;55.832;49.124;2023-08-06T10:41:08;2.58;;;1.20;;
78453;SDS011;67750;55.832;49.124;2023-08-06T10:43:39;1.92;;;1.20;;
78453;SDS011;67750;55.832;49.124;2023-08-06T10:46:10;3.83;;;1.40;;
78453;SDS011;67750;55.832;49.124;2023-08-06T10:48:41;2.90;;;1.20;;
78453;SDS011;67750;55.832;49.124;2023-08-06T10:54:15;5.40;;;1.20;;
78453;SDS011;67750;55.832;49.124;2023-08-06T10:59:00;3.90;;;1.52;;
78453;SDS011;67750;55.832;49.124;2023-08-06T11:01:29;5.40;;;1.40;;
78453;SDS011;67750;55.832;49.124;2023-08-06T11:04:00;5.20;;;1.60;;
78453;SDS011;67750;55.832;49.124;2023-08-06T11:06:31;2.50;;;1.25;;
78453;SDS011;67750;55.832;49.124;2023-08-06T11:09:01;5.72;;;1.47;;
78453;SDS011;67750;55.832;49.124;2023-08-06T11:11:30;3.40;;;1.27;;
78453;SDS011;67750;55.832;49.124;2023-08-06T11:14:00;1.85;;;1.20;;
78453;SDS011;67750;55.832;49.124;2023-08-06T11:16:29;2.30;;;1.30;;
78453;SDS011;67750;55.832;49.124;2023-08-06T11:18:59;3.87;;;1.45;;
78453;SDS011;67750;55.832;49.124;2023-08-06T11:21:28;3.75;;;1.50;;
78453;SDS011;67750;55.832;49.124;2023-08-06T11:23:59;5.47;;;1.40;;
78453;SDS011;67750;55.832;49.124;2023-08-06T11:26:29;4.08;;;1.35;;
78453;SDS011;67750;55.832;49.124;2023-08-06T11:31:27;5.58;;;1.60;;
78453;SDS011;67750;55.832;49.124;2023-08-06T11:33:57;4.80;;;1.50;;
78453;SDS011;67750;55.832;49.124;2023-08-06T11:39:16;3.65;;;1.42;;
78453;SDS011;67750;55.832;49.124;2023-08-06T11:41:46;3.22;;;1.40;;
78453;SDS011;67750;55.832;49.124;2023-08-06T11:44:18;3.08;;;1.80;;
78453;SDS011;67750;55.832;49.124;2023-08-06T11:46:50;3.62;;;1.60;;
78453;SDS011;67750;55.832;49.124;2023-08-06T11:49:20;2.80;;;1.32;;
78453;SDS011;67750;55.832;49.124;2023-08-06T11:51:51;6.25;;;1.32;;
78453;SDS011;67750;55.832;49.124;2023-08-06T11:54:30;3.92;;;1.47;;
78453;SDS011;67750;55.832;49.124;2023-08-06T11:56:51;5.58;;;1.40;;
78453;SDS011;67750;55.832;49.124;2023-08-06T11:59:21;4.25;;;1.40;;
78453;SDS011;67750;55.832;49.124;2023-08-06T12:01:50;1.90;;;1.22;;
78453;SDS011;67750;55.832;49.124;2023-08-06T12:04:21;5.55;;;2.30;;
78453;SDS011;67750;55.832;49.124;2023-08-06T12:06:50;3.85;;;1.32;;
78453;SDS011;67750;55.832;49.124;2023-08-06T12:09:20;5.78;;;1.37;;
78453;SDS011;67750;55.832;49.124;2023-08-06T12:11:50;3.08;;;1.37;;
78453;SDS011;67750;55.832;49.124;2023-08-06T12:14:19;3.35;;;1.60;;
78453;SDS011;67750;55.832;49.124;2023-08-06T12:16:49;1.90;;;1.30;;
78453;SDS011;67750;55.832;49.124;2023-08-06T12:19:18;2.52;;;1.25;;
78453;SDS011;67750;55.832;49.124;2023-08-06T12:21:48;2.60;;;1.20;;
78453;SDS011;67750;55.832;49.124;2023-08-06T12:24:17;7.28;;;1.20;;
78453;SDS011;67750;55.832;49.124;2023-08-06T12:26:47;3.15;;;1.10;;
78453;SDS011;67750;55.832;49.124;2023-08-06T12:29:16;2.45;;;1.12;;
78453;SDS011;67750;55.832;49.124;2023-08-06T12:31:46;5.17;;;1.30;;
78453;SDS011;67750;55.832;49.124;2023-08-06T12:34:15;7.15;;;1.52;;
78453;SDS011;67750;55.832;49.124;2023-08-06T12:36:45;3.37;;;1.32;;
78453;SDS011;67750;55.832;49.124;2023-08-06T12:39:14;4.17;;;1.15;;
78453;SDS011;67750;55.832;49.124;2023-08-06T12:41:44;2.70;;;1.22;;
78453;SDS011;67750;55.832;49.124;2023-08-06T12:44:13;3.83;;;1.22;;
78453;SDS011;67750;55.832;49.124;2023-08-06T12:46:43;4.47;;;1.30;;
78453;SDS011;67750;55.832;49.124;2023-08-06T12:49:12;1.85;;;1.17;;
78453;SDS011;67750;55.832;49.124;2023-08-06T12:51:42;2.87;;;1.30;;
78453;SDS011;67750;55.832;49.124;2023-08-06T12:54:12;3.20;;;1.50;;
78453;SDS011;67750;55.832;49.124;2023-08-06T12:56:41;2.83;;;1.50;;
78453;SDS011;67750;55.832;49.124;2023-08-06T12:59:11;4.90;;;1.07;;
78453;SDS011;67750;55.832;49.124;2023-08-06T13:01:41;4.37;;;1.10;;
78453;SDS011;67750;55.832;49.124;2023-08-06T13:04:11;3.65;;;1.27;;
78453;SDS011;67750;55.832;49.124;2023-08-06T13:06:40;2.50;;;0.95;;
78453;SDS011;67750;55.832;49.124;2023-08-06T13:09:10;3.65;;;1.20;;
78453;SDS011;67750;55.832;49.124;2023-08-06T13:11:40;4.47;;;1.30;;
78453;SDS011;67750;55.832;49.124;2023-08-06T13:14:11;4.05;;;1.55;;
78453;SDS011;67750;55.832;49.124;2023-08-06T13:16:42;3.62;;;1.30;;
78453;SDS011;67750;55.832;49.124;2023-08-06T13:19:12;2.33;;;1.30;;
78453;SDS011;67750;55.832;49.124;2023-08-06T13:24:34;3.12;;;1.55;;
78453;SDS011;67750;55.832;49.124;2023-08-06T13:27:03;2.47;;;1.20;;
78453;SDS011;67750;55.832;49.124;2023-08-06T13:29:33;3.90;;;1.40;;
78453;SDS011;67750;55.832;49.124;2023-08-06T13:32:03;4.37;;;1.40;;
78453;SDS011;67750;55.832;49.124;2023-08-06T13:34:33;2.27;;;1.40;;
78453;SDS011;67750;55.832;49.124;2023-08-06T13:37:02;3.67;;;1.80;;
78453;SDS011;67750;55.832;49.124;2023-08-06T13:39:32;3.75;;;1.40;;
78453;SDS011;67750;55.832;49.124;2023-08-06T13:42:01;3.52;;;1.42;;
78453;SDS011;67750;55.832;49.124;2023-08-06T13:44:31;3.05;;;1.55;;
78453;SDS011;67750;55.832;49.124;2023-08-06T13:47:02;3.70;;;2.10;;
78453;SDS011;67750;55.832;49.124;2023-08-06T13:49:31;3.58;;;1.40;;
78453;SDS011;67750;55.832;49.124;2023-08-06T13:52:02;5.20;;;1.57;;
78453;SDS011;67750;55.832;49.124;2023-08-06T13:54:32;5.15;;;1.70;;
78453;SDS011;67750;55.832;49.124;2023-08-06T13:57:01;5.03;;;1.42;;
78453;SDS011;67750;55.832;49.124;2023-08-06T13:59:31;2.62;;;1.60;;
78453;SDS011;67750;55.832;49.124;2023-08-06T14:02:01;3.90;;;1.42;;
78453;SDS011;67750;55.832;49.124;2023-08-06T14:04:30;4.92;;;1.70;;
78453;SDS011;67750;55.832;49.124;2023-08-06T14:07:00;2.72;;;1.40;;
78453;SDS011;67750;55.832;49.124;2023-08-06T14:09:29;5.90;;;1.50;;
78453;SDS011;67750;55.832;49.124;2023-08-06T14:11:59;5.97;;;2.70;;
78453;SDS011;67750;55.832;49.124;2023-08-06T14:14:28;6.75;;;2.30;;
78453;SDS011;67750;55.832;49.124;2023-08-06T14:16:58;2.85;;;1.70;;
78453;SDS011;67750;55.832;49.124;2023-08-06T14:19:27;3.98;;;1.65;;
78453;SDS011;67750;55.832;49.124;2023-08-06T14:21:57;4.33;;;1.70;;
78453;SDS011;67750;55.832;49.124;2023-08-06T14:24:26;6.12;;;1.57;;
78453;SDS011;67750;55.832;49.124;2023-08-06T14:26:56;3.67;;;1.67;;
78453;SDS011;67750;55.832;49.124;2023-08-06T14:29:27;4.08;;;1.70;;
78453;SDS011;67750;55.832;49.124;2023-08-06T14:31:56;3.70;;;1.60;;
78453;SDS011;67750;55.832;49.124;2023-08-06T14:34:26;4.95;;;1.50;;
78453;SDS011;67750;55.832;49.124;2023-08-06T14:36:55;3.62;;;1.50;;
78453;SDS011;67750;55.832;49.124;2023-08-06T14:39:26;3.77;;;1.30;;
78453;SDS011;67750;55.832;49.124;2023-08-06T14:41:55;3.65;;;1.60;;
78453;SDS011;67750;55.832;49.124;2023-08-06T14:44:25;3.45;;;1.57;;
78453;SDS011;67750;55.832;49.124;2023-08-06T14:46:54;4.78;;;1.30;;
78453;SDS011;67750;55.832;49.124;2023-08-06T14:49:24;6.05;;;1.60;;
78453;SDS011;67750;55.832;49.124;2023-08-06T14:51:53;2.22;;;1.40;;
78453;SDS011;67750;55.832;49.124;2023-08-06T14:54:25;4.15;;;1.60;;
78453;SDS011;67750;55.832;49.124;2023-08-06T14:56:56;6.17;;;1.87;;
78453;SDS011;67750;55.832;49.124;2023-08-06T14:59:25;4.75;;;1.90;;
78453;SDS011;67750;55.832;49.124;2023-08-06T15:01:55;5.95;;;1.70;;
78453;SDS011;67750;55.832;49.124;2023-08-06T15:04:25;6.55;;;1.70;;
78453;SDS011;67750;55.832;49.124;2023-08-06T15:06:54;3.90;;;1.82;;
78453;SDS011;67750;55.832;49.124;2023-08-06T15:09:24;4.22;;;1.80;;
78453;SDS011;67750;55.832;49.124;2023-08-06T15:11:53;2.75;;;1.72;;
78453;SDS011;67750;55.832;49.124;2023-08-06T15:14:24;3.25;;;1.90;;
78453;SDS011;67750;55.832;49.124;2023-08-06T15:16:53;4.62;;;1.90;;
78453;SDS011;67750;55.832;49.124;2023-08-06T15:19:24;4.37;;;1.57;;
78453;SDS011;67750;55.832;49.124;2023-08-06T15:21:54;2.40;;;1.50;;
78453;SDS011;67750;55.832;49.124;2023-08-06T15:24:23;3.15;;;1.35;;
78453;SDS011;67750;55.832;49.124;2023-08-06T15:26:53;2.75;;;1.67;;
78453;SDS011;67750;55.832;49.124;2023-08-06T15:29:22;6.53;;;1.45;;
78453;SDS011;67750;55.832;49.124;2023-08-06T15:31:52;3.65;;;1.40;;
78453;SDS011;67750;55.832;49.124;2023-08-06T15:34:23;3.55;;;1.40;;
78453;SDS011;67750;55.832;49.124;2023-08-06T15:36:53;3.72;;;2.20;;
78453;SDS011;67750;55.832;49.124;2023-08-06T15:39:22;6.85;;;1.70;;
78453;SDS011;67750;55.832;49.124;2023-08-06T15:41:52;6.60;;;2.00;;
78453;SDS011;67750;55.832;49.124;2023-08-06T15:44:21;6.62;;;1.85;;
78453;SDS011;67750;55.832;49.124;2023-08-06T15:46:51;4.83;;;1.95;;